Airways and Terminal Forecast

Significant Meteorological Information

WSPH31 RPLL 280724
RPHI SIGMET A02 VALID 280730/281130 RPLL-
RPHI MANILA FIR EMBD TS OBS WI N1037 E11747 - N0851 E11916 - N0720 E11912 - N0825 E11630 - N1030 E11400 - N1105 E11401 - N1037 E11747 TOP FL540 MOV WNW 15KT NC=

Terminal Aerodrome Forecast

TAF RPLL

280500Z 2806/2912 06005KT 9999 FEW025 BKN100 TX29/2806Z TN24/2822Z TEMPO 2806/2812 26008KT 9000 -RA SCT025 BKN080 TEMPO 2812/2818 SCT023 BKN100=

TAF RPVM

280500Z 2806/2912 01010KT 9999 FEW020 SCT300 TEMPO 2806/2812 03014KT 8000 -SHRA FEW018CB BKN300=

TAF RPLC

280500Z 2806/2912 36008KT 9999 SCT020 BKN100 TX30/2806Z TX23/2821Z TEMPO 2806/2812 34010KT SCT020 BKN300=

TAF RPLB

280500Z 2806/2906 06009KT 9999 FEW020 BKN080 TX29/2806Z TN23/2822Z TEMPO 2806/2812 07012KT 9000 -SHRA SCT020 BKN080=

TAF RPLI

280500Z 2806/2906 04012G28KT 9999 FEW018 BKN280 BECMG 2810/2814 07012KT=

TAF RPVP

280500Z 2806/2906 06010KT 9999 FEW019 BKN080 PROB40 TEMPO 2806/2812 08013G23KT -TSRA SCT017CB OVC080=

TAF RPVD

280500Z 2806/2906 01008KT 9999 FEW015 BKN070 TEMPO 2806/2812 -RA SCT014CB OVC070=

TAF RPMR

280500Z 2806/2906 02004KT 9999 FEW018 SCT080 TEMPO 2806/2812 16006KT FEW017CB BKN080=

TAF RPMD

280500Z 2806/2906 02007KT 9999 FEW016 BKN090 TEMPO 2806/2812 12003KT 9000 -RA FEW016 OVC090=

TAF RPMZ

280500Z 2806/2906 10004KT 9999 FEW017 SCT090 TEMPO 2806/2812 28006KT FEW017 BKN090 BECMG 2820/2822 29003KT FEW017 BKN090=

TAF RPVK

280500Z 2806/2906 02010KT 9999 SCT016 BKN070 TEMPO 2806/2812 05016KT 7000 -RA SCT016 OVC070 TEMPO 2812/2818 04017KT 5000 RA SCT016 OVC070=

 

RPLL FORECAST TAKE-OFF CONDITION

TIME

(UTC)

WIND

(dddffKT)

TEMP

(°C)

QNH

(hPa)

TIME

(UTC)

WIND

(dddffKT)

TEMP

(°C)

QNH

(hPa)

0600

26005KT

29.0

1011.0

1000

03008KT

28.5

1010.0

0700

02008KT

29.0

1010.5

1100

05006KT

28.0

1010.5

0800

04006KT

29.0

1010.5

1200

07006KT

28.0

1011.0

0900

02006KT

28.5

1010.0

1300

06005KT

27.0

1011.0

 

ISSUED AT NAIA AMSS-WD/PAGASA-DOST FOR 0500UTC 28 JANUARY 2023

PREPARED BY:   JRAB

CHECKED BY:     LLAB